sensor_id;sensor_type;location;lat;lon;timestamp;P1;durP1;ratioP1;P2;durP2;ratioP2
23001;SDS011;11667;51.706;4.856;2023-05-07T00:01:35;28.77;;;19.05;;
23001;SDS011;11667;51.706;4.856;2023-05-07T00:04:04;31.00;;;18.95;;
23001;SDS011;11667;51.706;4.856;2023-05-07T00:06:35;29.60;;;18.57;;
23001;SDS011;11667;51.706;4.856;2023-05-07T00:09:05;33.67;;;19.20;;
23001;SDS011;11667;51.706;4.856;2023-05-07T00:11:35;30.75;;;18.77;;
23001;SDS011;11667;51.706;4.856;2023-05-07T00:14:04;31.75;;;19.42;;
23001;SDS011;11667;51.706;4.856;2023-05-07T00:16:33;29.37;;;17.98;;
23001;SDS011;11667;51.706;4.856;2023-05-07T00:19:03;30.12;;;19.12;;
23001;SDS011;11667;51.706;4.856;2023-05-07T00:21:32;29.77;;;18.95;;
23001;SDS011;11667;51.706;4.856;2023-05-07T00:24:02;31.37;;;19.20;;
23001;SDS011;11667;51.706;4.856;2023-05-07T00:26:31;29.80;;;18.30;;
23001;SDS011;11667;51.706;4.856;2023-05-07T00:29:01;30.37;;;18.90;;
23001;SDS011;11667;51.706;4.856;2023-05-07T00:31:30;32.42;;;19.62;;
23001;SDS011;11667;51.706;4.856;2023-05-07T00:34:00;28.05;;;18.25;;
23001;SDS011;11667;51.706;4.856;2023-05-07T00:36:30;28.77;;;18.02;;
23001;SDS011;11667;51.706;4.856;2023-05-07T00:38:59;28.45;;;18.67;;
23001;SDS011;11667;51.706;4.856;2023-05-07T00:41:31;28.87;;;18.12;;
23001;SDS011;11667;51.706;4.856;2023-05-07T00:44:00;29.80;;;17.77;;
23001;SDS011;11667;51.706;4.856;2023-05-07T00:46:30;27.25;;;16.97;;
23001;SDS011;11667;51.706;4.856;2023-05-07T00:49:00;26.15;;;17.60;;
23001;SDS011;11667;51.706;4.856;2023-05-07T00:51:30;26.82;;;17.32;;
23001;SDS011;11667;51.706;4.856;2023-05-07T00:54:01;26.10;;;16.97;;
23001;SDS011;11667;51.706;4.856;2023-05-07T00:56:31;23.52;;;15.08;;
23001;SDS011;11667;51.706;4.856;2023-05-07T00:59:01;23.55;;;15.63;;
23001;SDS011;11667;51.706;4.856;2023-05-07T01:01:31;23.77;;;15.65;;
23001;SDS011;11667;51.706;4.856;2023-05-07T01:04:01;21.87;;;14.85;;
23001;SDS011;11667;51.706;4.856;2023-05-07T01:06:31;23.85;;;14.80;;
23001;SDS011;11667;51.706;4.856;2023-05-07T01:09:01;21.00;;;14.35;;
23001;SDS011;11667;51.706;4.856;2023-05-07T01:11:32;22.98;;;14.65;;
23001;SDS011;11667;51.706;4.856;2023-05-07T01:14:02;22.65;;;15.05;;
23001;SDS011;11667;51.706;4.856;2023-05-07T01:16:32;22.35;;;14.93;;
23001;SDS011;11667;51.706;4.856;2023-05-07T01:19:01;23.20;;;15.20;;
23001;SDS011;11667;51.706;4.856;2023-05-07T01:21:32;25.43;;;14.53;;
23001;SDS011;11667;51.706;4.856;2023-05-07T01:24:04;20.82;;;14.45;;
23001;SDS011;11667;51.706;4.856;2023-05-07T01:26:34;20.70;;;14.30;;
23001;SDS011;11667;51.706;4.856;2023-05-07T01:29:03;21.87;;;14.43;;
23001;SDS011;11667;51.706;4.856;2023-05-07T01:31:34;19.60;;;14.03;;
23001;SDS011;11667;51.706;4.856;2023-05-07T01:34:04;20.75;;;14.40;;
23001;SDS011;11667;51.706;4.856;2023-05-07T01:36:34;20.20;;;14.70;;
23001;SDS011;11667;51.706;4.856;2023-05-07T01:39:06;21.27;;;14.80;;
23001;SDS011;11667;51.706;4.856;2023-05-07T01:41:36;21.48;;;14.93;;
23001;SDS011;11667;51.706;4.856;2023-05-07T01:44:06;21.37;;;14.87;;
23001;SDS011;11667;51.706;4.856;2023-05-07T01:46:36;21.10;;;14.90;;
23001;SDS011;11667;51.706;4.856;2023-05-07T01:49:06;20.72;;;14.23;;
23001;SDS011;11667;51.706;4.856;2023-05-07T01:51:36;21.15;;;15.18;;
23001;SDS011;11667;51.706;4.856;2023-05-07T01:54:05;20.57;;;14.18;;
23001;SDS011;11667;51.706;4.856;2023-05-07T01:56:36;24.95;;;16.07;;
23001;SDS011;11667;51.706;4.856;2023-05-07T01:59:06;22.07;;;15.18;;
23001;SDS011;11667;51.706;4.856;2023-05-07T02:01:35;25.10;;;15.10;;
23001;SDS011;11667;51.706;4.856;2023-05-07T02:04:05;20.82;;;15.08;;
23001;SDS011;11667;51.706;4.856;2023-05-07T02:06:35;23.15;;;15.35;;
23001;SDS011;11667;51.706;4.856;2023-05-07T02:09:06;23.35;;;15.48;;
23001;SDS011;11667;51.706;4.856;2023-05-07T02:11:38;23.50;;;15.13;;
23001;SDS011;11667;51.706;4.856;2023-05-07T02:14:07;22.17;;;14.55;;
23001;SDS011;11667;51.706;4.856;2023-05-07T02:16:36;21.77;;;14.80;;
23001;SDS011;11667;51.706;4.856;2023-05-07T02:19:06;23.45;;;14.47;;
23001;SDS011;11667;51.706;4.856;2023-05-07T02:21:36;21.57;;;14.68;;
23001;SDS011;11667;51.706;4.856;2023-05-07T02:24:05;23.65;;;15.30;;
23001;SDS011;11667;51.706;4.856;2023-05-07T02:26:35;22.25;;;15.88;;
23001;SDS011;11667;51.706;4.856;2023-05-07T02:29:04;21.75;;;14.95;;
23001;SDS011;11667;51.706;4.856;2023-05-07T02:31:34;23.90;;;15.30;;
23001;SDS011;11667;51.706;4.856;2023-05-07T02:34:04;25.52;;;15.48;;
23001;SDS011;11667;51.706;4.856;2023-05-07T02:36:33;24.87;;;15.53;;
23001;SDS011;11667;51.706;4.856;2023-05-07T02:39:04;23.62;;;15.93;;
23001;SDS011;11667;51.706;4.856;2023-05-07T02:41:34;26.23;;;16.52;;
23001;SDS011;11667;51.706;4.856;2023-05-07T02:44:04;24.50;;;16.20;;
23001;SDS011;11667;51.706;4.856;2023-05-07T02:46:34;24.92;;;16.60;;
23001;SDS011;11667;51.706;4.856;2023-05-07T02:49:06;26.77;;;17.02;;
23001;SDS011;11667;51.706;4.856;2023-05-07T02:51:35;26.97;;;17.12;;
23001;SDS011;11667;51.706;4.856;2023-05-07T02:54:06;28.75;;;17.23;;
23001;SDS011;11667;51.706;4.856;2023-05-07T02:56:36;26.05;;;16.65;;
23001;SDS011;11667;51.706;4.856;2023-05-07T02:59:05;29.35;;;17.75;;
23001;SDS011;11667;51.706;4.856;2023-05-07T03:01:36;29.00;;;17.45;;
23001;SDS011;11667;51.706;4.856;2023-05-07T03:04:07;29.35;;;18.15;;
23001;SDS011;11667;51.706;4.856;2023-05-07T03:06:37;27.17;;;17.55;;
23001;SDS011;11667;51.706;4.856;2023-05-07T03:09:06;25.43;;;16.97;;
23001;SDS011;11667;51.706;4.856;2023-05-07T03:11:36;30.27;;;17.80;;
23001;SDS011;11667;51.706;4.856;2023-05-07T03:14:05;28.30;;;16.97;;
23001;SDS011;11667;51.706;4.856;2023-05-07T03:16:35;26.77;;;17.30;;
23001;SDS011;11667;51.706;4.856;2023-05-07T03:19:04;27.75;;;17.92;;
23001;SDS011;11667;51.706;4.856;2023-05-07T03:21:34;28.92;;;17.95;;
23001;SDS011;11667;51.706;4.856;2023-05-07T03:24:03;27.67;;;17.45;;
23001;SDS011;11667;51.706;4.856;2023-05-07T03:26:33;27.45;;;17.15;;
23001;SDS011;11667;51.706;4.856;2023-05-07T03:29:03;24.67;;;16.30;;
23001;SDS011;11667;51.706;4.856;2023-05-07T03:31:33;26.68;;;17.57;;
23001;SDS011;11667;51.706;4.856;2023-05-07T03:34:02;24.95;;;17.23;;
23001;SDS011;11667;51.706;4.856;2023-05-07T03:36:32;29.92;;;18.37;;
23001;SDS011;11667;51.706;4.856;2023-05-07T03:39:02;29.42;;;18.42;;
23001;SDS011;11667;51.706;4.856;2023-05-07T03:41:34;29.00;;;18.62;;
23001;SDS011;11667;51.706;4.856;2023-05-07T03:44:03;31.23;;;18.75;;
23001;SDS011;11667;51.706;4.856;2023-05-07T03:46:33;28.83;;;18.90;;
23001;SDS011;11667;51.706;4.856;2023-05-07T03:49:03;34.30;;;19.92;;
23001;SDS011;11667;51.706;4.856;2023-05-07T03:51:33;29.57;;;18.65;;
23001;SDS011;11667;51.706;4.856;2023-05-07T03:54:04;27.93;;;18.23;;
23001;SDS011;11667;51.706;4.856;2023-05-07T03:56:34;33.15;;;19.02;;
23001;SDS011;11667;51.706;4.856;2023-05-07T03:59:03;29.75;;;18.50;;
23001;SDS011;11667;51.706;4.856;2023-05-07T04:01:33;29.72;;;18.98;;
23001;SDS011;11667;51.706;4.856;2023-05-07T04:04:03;30.50;;;18.57;;
23001;SDS011;11667;51.706;4.856;2023-05-07T04:06:34;29.75;;;18.80;;
23001;SDS011;11667;51.706;4.856;2023-05-07T04:09:04;29.98;;;17.95;;
23001;SDS011;11667;51.706;4.856;2023-05-07T04:11:35;30.80;;;18.30;;
23001;SDS011;11667;51.706;4.856;2023-05-07T04:14:05;28.07;;;17.98;;
23001;SDS011;11667;51.706;4.856;2023-05-07T04:16:35;25.72;;;17.50;;
23001;SDS011;11667;51.706;4.856;2023-05-07T04:19:05;27.22;;;17.75;;
23001;SDS011;11667;51.706;4.856;2023-05-07T04:21:35;28.30;;;17.80;;
23001;SDS011;11667;51.706;4.856;2023-05-07T04:24:05;25.20;;;16.90;;
23001;SDS011;11667;51.706;4.856;2023-05-07T04:26:35;29.80;;;18.62;;
23001;SDS011;11667;51.706;4.856;2023-05-07T04:29:05;28.23;;;18.10;;
23001;SDS011;11667;51.706;4.856;2023-05-07T04:31:35;30.62;;;19.05;;
23001;SDS011;11667;51.706;4.856;2023-05-07T04:34:04;32.53;;;19.73;;
23001;SDS011;11667;51.706;4.856;2023-05-07T04:36:34;33.35;;;20.12;;
23001;SDS011;11667;51.706;4.856;2023-05-07T04:39:06;30.23;;;19.73;;
23001;SDS011;11667;51.706;4.856;2023-05-07T04:41:36;33.55;;;20.20;;
23001;SDS011;11667;51.706;4.856;2023-05-07T04:44:05;33.88;;;20.23;;
23001;SDS011;11667;51.706;4.856;2023-05-07T04:46:37;34.08;;;19.87;;
23001;SDS011;11667;51.706;4.856;2023-05-07T04:49:07;32.90;;;20.37;;
23001;SDS011;11667;51.706;4.856;2023-05-07T04:51:36;30.52;;;19.07;;
23001;SDS011;11667;51.706;4.856;2023-05-07T04:54:06;34.38;;;20.05;;
23001;SDS011;11667;51.706;4.856;2023-05-07T04:56:36;32.05;;;19.82;;
23001;SDS011;11667;51.706;4.856;2023-05-07T04:59:05;30.70;;;19.27;;
23001;SDS011;11667;51.706;4.856;2023-05-07T05:01:36;33.48;;;19.75;;
23001;SDS011;11667;51.706;4.856;2023-05-07T05:04:06;31.73;;;19.55;;
23001;SDS011;11667;51.706;4.856;2023-05-07T05:06:35;34.08;;;19.50;;
23001;SDS011;11667;51.706;4.856;2023-05-07T05:09:05;37.38;;;21.45;;
23001;SDS011;11667;51.706;4.856;2023-05-07T05:11:35;34.33;;;21.27;;
23001;SDS011;11667;51.706;4.856;2023-05-07T05:14:04;32.33;;;20.82;;
23001;SDS011;11667;51.706;4.856;2023-05-07T05:16:33;33.00;;;20.57;;
23001;SDS011;11667;51.706;4.856;2023-05-07T05:19:05;35.78;;;20.60;;
23001;SDS011;11667;51.706;4.856;2023-05-07T05:21:36;36.73;;;21.07;;
23001;SDS011;11667;51.706;4.856;2023-05-07T05:24:07;36.13;;;21.00;;
23001;SDS011;11667;51.706;4.856;2023-05-07T05:26:38;37.00;;;20.95;;
23001;SDS011;11667;51.706;4.856;2023-05-07T05:29:08;35.48;;;21.10;;
23001;SDS011;11667;51.706;4.856;2023-05-07T05:31:39;35.63;;;22.22;;
23001;SDS011;11667;51.706;4.856;2023-05-07T05:34:10;35.40;;;21.82;;
23001;SDS011;11667;51.706;4.856;2023-05-07T05:36:40;33.40;;;21.55;;
23001;SDS011;11667;51.706;4.856;2023-05-07T05:39:10;35.73;;;22.73;;
23001;SDS011;11667;51.706;4.856;2023-05-07T05:41:40;36.90;;;22.00;;
23001;SDS011;11667;51.706;4.856;2023-05-07T05:44:11;41.85;;;22.95;;
23001;SDS011;11667;51.706;4.856;2023-05-07T05:46:41;37.65;;;22.35;;
23001;SDS011;11667;51.706;4.856;2023-05-07T05:49:10;36.68;;;22.42;;
23001;SDS011;11667;51.706;4.856;2023-05-07T05:51:41;37.65;;;23.07;;
23001;SDS011;11667;51.706;4.856;2023-05-07T05:54:12;36.45;;;22.95;;
23001;SDS011;11667;51.706;4.856;2023-05-07T05:56:43;45.67;;;23.18;;
23001;SDS011;11667;51.706;4.856;2023-05-07T05:59:12;40.50;;;24.23;;
23001;SDS011;11667;51.706;4.856;2023-05-07T06:01:42;37.53;;;23.22;;
23001;SDS011;11667;51.706;4.856;2023-05-07T06:04:12;40.08;;;23.47;;
23001;SDS011;11667;51.706;4.856;2023-05-07T06:06:41;41.20;;;24.05;;
23001;SDS011;11667;51.706;4.856;2023-05-07T06:09:11;38.83;;;23.52;;
23001;SDS011;11667;51.706;4.856;2023-05-07T06:11:42;39.55;;;23.90;;
23001;SDS011;11667;51.706;4.856;2023-05-07T06:14:12;39.33;;;23.90;;
23001;SDS011;11667;51.706;4.856;2023-05-07T06:16:41;39.73;;;24.70;;
23001;SDS011;11667;51.706;4.856;2023-05-07T06:19:11;36.13;;;23.05;;
23001;SDS011;11667;51.706;4.856;2023-05-07T06:21:41;42.67;;;25.23;;
23001;SDS011;11667;51.706;4.856;2023-05-07T06:24:11;38.53;;;24.25;;
23001;SDS011;11667;51.706;4.856;2023-05-07T06:26:40;38.23;;;23.30;;
23001;SDS011;11667;51.706;4.856;2023-05-07T06:29:10;35.73;;;23.65;;
23001;SDS011;11667;51.706;4.856;2023-05-07T06:31:40;38.45;;;23.77;;
23001;SDS011;11667;51.706;4.856;2023-05-07T06:34:10;35.50;;;23.30;;
23001;SDS011;11667;51.706;4.856;2023-05-07T06:36:41;35.30;;;23.67;;
23001;SDS011;11667;51.706;4.856;2023-05-07T06:39:12;37.23;;;23.85;;
23001;SDS011;11667;51.706;4.856;2023-05-07T06:41:42;36.00;;;23.75;;
23001;SDS011;11667;51.706;4.856;2023-05-07T06:44:14;38.27;;;24.17;;
23001;SDS011;11667;51.706;4.856;2023-05-07T06:46:45;37.98;;;23.75;;
23001;SDS011;11667;51.706;4.856;2023-05-07T06:49:15;41.48;;;25.20;;
23001;SDS011;11667;51.706;4.856;2023-05-07T06:51:47;41.53;;;24.82;;
23001;SDS011;11667;51.706;4.856;2023-05-07T06:54:17;38.88;;;26.02;;
23001;SDS011;11667;51.706;4.856;2023-05-07T06:56:48;40.73;;;25.88;;
23001;SDS011;11667;51.706;4.856;2023-05-07T06:59:18;38.78;;;25.27;;
23001;SDS011;11667;51.706;4.856;2023-05-07T07:01:48;37.85;;;25.17;;
23001;SDS011;11667;51.706;4.856;2023-05-07T07:04:17;35.43;;;24.67;;
23001;SDS011;11667;51.706;4.856;2023-05-07T07:06:48;37.88;;;24.75;;
23001;SDS011;11667;51.706;4.856;2023-05-07T07:09:18;38.33;;;24.67;;
23001;SDS011;11667;51.706;4.856;2023-05-07T07:11:49;37.27;;;24.67;;
23001;SDS011;11667;51.706;4.856;2023-05-07T07:14:19;34.58;;;24.98;;
23001;SDS011;11667;51.706;4.856;2023-05-07T07:16:50;35.63;;;24.00;;
23001;SDS011;11667;51.706;4.856;2023-05-07T07:19:19;34.78;;;23.75;;
23001;SDS011;11667;51.706;4.856;2023-05-07T07:21:51;32.95;;;23.18;;
23001;SDS011;11667;51.706;4.856;2023-05-07T07:24:21;31.77;;;22.42;;
23001;SDS011;11667;51.706;4.856;2023-05-07T07:26:52;31.87;;;22.62;;
23001;SDS011;11667;51.706;4.856;2023-05-07T07:29:24;32.42;;;22.00;;
23001;SDS011;11667;51.706;4.856;2023-05-07T07:31:54;32.60;;;23.27;;
23001;SDS011;11667;51.706;4.856;2023-05-07T07:34:24;33.50;;;23.35;;
23001;SDS011;11667;51.706;4.856;2023-05-07T07:36:53;32.55;;;23.47;;
23001;SDS011;11667;51.706;4.856;2023-05-07T07:39:24;31.57;;;22.67;;
23001;SDS011;11667;51.706;4.856;2023-05-07T07:41:54;33.35;;;23.42;;
23001;SDS011;11667;51.706;4.856;2023-05-07T07:44:24;35.45;;;23.38;;
23001;SDS011;11667;51.706;4.856;2023-05-07T07:46:56;32.70;;;23.42;;
23001;SDS011;11667;51.706;4.856;2023-05-07T07:49:26;34.13;;;23.35;;
23001;SDS011;11667;51.706;4.856;2023-05-07T07:51:57;33.92;;;22.82;;
23001;SDS011;11667;51.706;4.856;2023-05-07T07:54:27;31.87;;;22.15;;
23001;SDS011;11667;51.706;4.856;2023-05-07T07:56:57;29.92;;;21.73;;
23001;SDS011;11667;51.706;4.856;2023-05-07T07:59:28;29.90;;;21.23;;
23001;SDS011;11667;51.706;4.856;2023-05-07T08:01:57;31.87;;;21.97;;
23001;SDS011;11667;51.706;4.856;2023-05-07T08:04:28;28.95;;;21.35;;
23001;SDS011;11667;51.706;4.856;2023-05-07T08:07:01;30.27;;;21.65;;
23001;SDS011;11667;51.706;4.856;2023-05-07T08:09:31;28.90;;;21.82;;
23001;SDS011;11667;51.706;4.856;2023-05-07T08:12:01;33.20;;;21.60;;
23001;SDS011;11667;51.706;4.856;2023-05-07T08:14:32;30.50;;;21.33;;
23001;SDS011;11667;51.706;4.856;2023-05-07T08:17:03;31.15;;;22.90;;
23001;SDS011;11667;51.706;4.856;2023-05-07T08:19:33;29.72;;;22.35;;
23001;SDS011;11667;51.706;4.856;2023-05-07T08:22:03;30.57;;;21.45;;
23001;SDS011;11667;51.706;4.856;2023-05-07T08:24:33;28.77;;;20.72;;
23001;SDS011;11667;51.706;4.856;2023-05-07T08:27:02;29.90;;;20.52;;
23001;SDS011;11667;51.706;4.856;2023-05-07T08:29:32;28.60;;;20.85;;
23001;SDS011;11667;51.706;4.856;2023-05-07T08:32:01;27.62;;;20.48;;
23001;SDS011;11667;51.706;4.856;2023-05-07T08:34:31;27.48;;;20.12;;
23001;SDS011;11667;51.706;4.856;2023-05-07T08:37:02;27.85;;;20.23;;
23001;SDS011;11667;51.706;4.856;2023-05-07T08:39:33;26.73;;;19.52;;
23001;SDS011;11667;51.706;4.856;2023-05-07T08:42:03;27.37;;;19.82;;
23001;SDS011;11667;51.706;4.856;2023-05-07T08:44:34;25.68;;;19.05;;
23001;SDS011;11667;51.706;4.856;2023-05-07T08:47:06;27.22;;;19.37;;
23001;SDS011;11667;51.706;4.856;2023-05-07T08:49:36;26.80;;;19.42;;
23001;SDS011;11667;51.706;4.856;2023-05-07T08:52:07;27.95;;;18.15;;
23001;SDS011;11667;51.706;4.856;2023-05-07T08:54:37;24.35;;;18.25;;
23001;SDS011;11667;51.706;4.856;2023-05-07T08:57:07;25.70;;;17.20;;
23001;SDS011;11667;51.706;4.856;2023-05-07T08:59:36;22.70;;;17.17;;
23001;SDS011;11667;51.706;4.856;2023-05-07T09:02:06;22.22;;;16.52;;
23001;SDS011;11667;51.706;4.856;2023-05-07T09:04:38;22.42;;;16.35;;
23001;SDS011;11667;51.706;4.856;2023-05-07T09:07:08;22.22;;;15.98;;
23001;SDS011;11667;51.706;4.856;2023-05-07T09:09:39;19.30;;;15.40;;
23001;SDS011;11667;51.706;4.856;2023-05-07T09:12:08;23.05;;;17.57;;
23001;SDS011;11667;51.706;4.856;2023-05-07T09:14:38;21.42;;;16.65;;
23001;SDS011;11667;51.706;4.856;2023-05-07T09:17:07;20.65;;;15.93;;
23001;SDS011;11667;51.706;4.856;2023-05-07T09:19:37;20.30;;;15.30;;
23001;SDS011;11667;51.706;4.856;2023-05-07T09:22:07;21.30;;;15.20;;
23001;SDS011;11667;51.706;4.856;2023-05-07T09:24:38;20.82;;;15.55;;
23001;SDS011;11667;51.706;4.856;2023-05-07T09:27:09;20.40;;;15.13;;
23001;SDS011;11667;51.706;4.856;2023-05-07T09:29:41;19.20;;;14.85;;
23001;SDS011;11667;51.706;4.856;2023-05-07T09:32:13;20.27;;;15.30;;
23001;SDS011;11667;51.706;4.856;2023-05-07T09:34:44;19.00;;;14.63;;
23001;SDS011;11667;51.706;4.856;2023-05-07T09:37:16;19.23;;;14.50;;
23001;SDS011;11667;51.706;4.856;2023-05-07T09:39:46;19.20;;;13.85;;
23001;SDS011;11667;51.706;4.856;2023-05-07T09:42:22;18.85;;;13.72;;
23001;SDS011;11667;51.706;4.856;2023-05-07T09:44:56;18.07;;;13.62;;
23001;SDS011;11667;51.706;4.856;2023-05-07T09:47:27;16.87;;;12.37;;
23001;SDS011;11667;51.706;4.856;2023-05-07T09:49:59;21.13;;;15.20;;
23001;SDS011;11667;51.706;4.856;2023-05-07T09:52:30;18.93;;;13.40;;
23001;SDS011;11667;51.706;4.856;2023-05-07T09:55:03;16.00;;;12.18;;
23001;SDS011;11667;51.706;4.856;2023-05-07T09:57:33;13.98;;;11.68;;
23001;SDS011;11667;51.706;4.856;2023-05-07T10:00:05;15.05;;;11.30;;
23001;SDS011;11667;51.706;4.856;2023-05-07T10:02:51;15.45;;;10.95;;
23001;SDS011;11667;51.706;4.856;2023-05-07T10:05:22;13.85;;;10.35;;
23001;SDS011;11667;51.706;4.856;2023-05-07T10:07:55;14.03;;;10.75;;
23001;SDS011;11667;51.706;4.856;2023-05-07T10:10:25;16.20;;;11.22;;
23001;SDS011;11667;51.706;4.856;2023-05-07T10:12:56;20.05;;;15.13;;
23001;SDS011;11667;51.706;4.856;2023-05-07T10:15:28;14.03;;;11.23;;
23001;SDS011;11667;51.706;4.856;2023-05-07T10:17:58;13.00;;;9.70;;
23001;SDS011;11667;51.706;4.856;2023-05-07T10:20:28;13.83;;;10.43;;
23001;SDS011;11667;51.706;4.856;2023-05-07T10:22:59;15.58;;;10.48;;
23001;SDS011;11667;51.706;4.856;2023-05-07T10:25:34;14.68;;;10.95;;
23001;SDS011;11667;51.706;4.856;2023-05-07T10:28:06;14.03;;;10.10;;
23001;SDS011;11667;51.706;4.856;2023-05-07T10:33:11;11.18;;;8.45;;
23001;SDS011;11667;51.706;4.856;2023-05-07T10:35:43;11.70;;;9.23;;
23001;SDS011;11667;51.706;4.856;2023-05-07T10:38:14;13.37;;;8.73;;
23001;SDS011;11667;51.706;4.856;2023-05-07T10:40:44;10.32;;;7.95;;
23001;SDS011;11667;51.706;4.856;2023-05-07T10:43:16;12.78;;;8.18;;
23001;SDS011;11667;51.706;4.856;2023-05-07T10:46:09;10.58;;;7.90;;
23001;SDS011;11667;51.706;4.856;2023-05-07T10:52:14;12.45;;;8.40;;
23001;SDS011;11667;51.706;4.856;2023-05-07T10:54:47;12.73;;;9.00;;
23001;SDS011;11667;51.706;4.856;2023-05-07T11:05:42;9.38;;;7.22;;
23001;SDS011;11667;51.706;4.856;2023-05-07T11:08:19;10.43;;;7.90;;
23001;SDS011;11667;51.706;4.856;2023-05-07T11:10:56;11.22;;;8.83;;
23001;SDS011;11667;51.706;4.856;2023-05-07T11:13:42;12.65;;;9.08;;
23001;SDS011;11667;51.706;4.856;2023-05-07T11:16:21;14.28;;;8.28;;
23001;SDS011;11667;51.706;4.856;2023-05-07T11:18:56;12.45;;;8.73;;
23001;SDS011;11667;51.706;4.856;2023-05-07T11:21:37;13.25;;;8.70;;
23001;SDS011;11667;51.706;4.856;2023-05-07T11:24:12;14.70;;;10.58;;
23001;SDS011;11667;51.706;4.856;2023-05-07T11:26:48;14.07;;;10.50;;
23001;SDS011;11667;51.706;4.856;2023-05-07T11:29:20;15.90;;;11.03;;
23001;SDS011;11667;51.706;4.856;2023-05-07T11:31:58;14.78;;;10.53;;
23001;SDS011;11667;51.706;4.856;2023-05-07T11:34:30;18.35;;;10.98;;
23001;SDS011;11667;51.706;4.856;2023-05-07T11:37:00;15.28;;;11.20;;
23001;SDS011;11667;51.706;4.856;2023-05-07T11:39:34;15.88;;;11.50;;
23001;SDS011;11667;51.706;4.856;2023-05-07T11:42:04;14.65;;;11.12;;
23001;SDS011;11667;51.706;4.856;2023-05-07T11:44:44;16.90;;;11.68;;
23001;SDS011;11667;51.706;4.856;2023-05-07T11:47:16;22.65;;;14.93;;
23001;SDS011;11667;51.706;4.856;2023-05-07T11:49:49;20.02;;;13.43;;
23001;SDS011;11667;51.706;4.856;2023-05-07T11:52:20;21.82;;;13.40;;
23001;SDS011;11667;51.706;4.856;2023-05-07T11:54:55;20.57;;;14.35;;
23001;SDS011;11667;51.706;4.856;2023-05-07T11:57:25;21.60;;;13.20;;
23001;SDS011;11667;51.706;4.856;2023-05-07T12:00:00;23.07;;;14.60;;
23001;SDS011;11667;51.706;4.856;2023-05-07T12:02:30;24.37;;;14.18;;
23001;SDS011;11667;51.706;4.856;2023-05-07T12:04:59;26.68;;;14.58;;
23001;SDS011;11667;51.706;4.856;2023-05-07T12:07:30;21.25;;;12.82;;
23001;SDS011;11667;51.706;4.856;2023-05-07T12:10:11;21.90;;;12.95;;
23001;SDS011;11667;51.706;4.856;2023-05-07T12:12:39;19.30;;;12.28;;
23001;SDS011;11667;51.706;4.856;2023-05-07T12:15:10;23.35;;;14.20;;
23001;SDS011;11667;51.706;4.856;2023-05-07T12:17:40;22.95;;;14.38;;
23001;SDS011;11667;51.706;4.856;2023-05-07T12:20:10;24.07;;;14.10;;
23001;SDS011;11667;51.706;4.856;2023-05-07T12:22:40;22.77;;;13.72;;
23001;SDS011;11667;51.706;4.856;2023-05-07T12:25:09;26.42;;;15.63;;
23001;SDS011;11667;51.706;4.856;2023-05-07T12:27:40;24.90;;;15.38;;
23001;SDS011;11667;51.706;4.856;2023-05-07T12:30:09;25.95;;;15.38;;
23001;SDS011;11667;51.706;4.856;2023-05-07T12:32:40;23.20;;;14.25;;
23001;SDS011;11667;51.706;4.856;2023-05-07T12:35:09;22.80;;;12.93;;
23001;SDS011;11667;51.706;4.856;2023-05-07T12:37:39;20.10;;;13.00;;
23001;SDS011;11667;51.706;4.856;2023-05-07T12:40:10;21.10;;;14.07;;
23001;SDS011;11667;51.706;4.856;2023-05-07T12:42:40;24.23;;;15.25;;
23001;SDS011;11667;51.706;4.856;2023-05-07T12:45:11;24.85;;;16.48;;
23001;SDS011;11667;51.706;4.856;2023-05-07T12:47:45;23.95;;;15.40;;
23001;SDS011;11667;51.706;4.856;2023-05-07T12:50:15;25.32;;;16.27;;
23001;SDS011;11667;51.706;4.856;2023-05-07T12:52:45;24.92;;;16.37;;
23001;SDS011;11667;51.706;4.856;2023-05-07T12:57:47;23.75;;;15.05;;
23001;SDS011;11667;51.706;4.856;2023-05-07T13:00:38;24.30;;;15.48;;
23001;SDS011;11667;51.706;4.856;2023-05-07T13:03:07;21.73;;;14.85;;
23001;SDS011;11667;51.706;4.856;2023-05-07T13:05:36;23.27;;;15.28;;
23001;SDS011;11667;51.706;4.856;2023-05-07T13:08:06;23.45;;;15.38;;
23001;SDS011;11667;51.706;4.856;2023-05-07T13:10:37;24.57;;;14.73;;
23001;SDS011;11667;51.706;4.856;2023-05-07T13:13:06;21.73;;;14.25;;
23001;SDS011;11667;51.706;4.856;2023-05-07T13:15:36;23.90;;;14.23;;
23001;SDS011;11667;51.706;4.856;2023-05-07T13:18:06;23.60;;;14.47;;
23001;SDS011;11667;51.706;4.856;2023-05-07T13:20:35;22.42;;;14.60;;
23001;SDS011;11667;51.706;4.856;2023-05-07T13:23:05;19.60;;;13.88;;
23001;SDS011;11667;51.706;4.856;2023-05-07T13:25:35;20.95;;;13.58;;
23001;SDS011;11667;51.706;4.856;2023-05-07T13:28:05;17.70;;;13.05;;
23001;SDS011;11667;51.706;4.856;2023-05-07T13:30:37;20.95;;;12.80;;
23001;SDS011;11667;51.706;4.856;2023-05-07T13:33:08;17.32;;;11.95;;
23001;SDS011;11667;51.706;4.856;2023-05-07T13:35:38;18.02;;;12.13;;
23001;SDS011;11667;51.706;4.856;2023-05-07T13:38:08;16.90;;;11.63;;
23001;SDS011;11667;51.706;4.856;2023-05-07T13:40:37;18.48;;;12.28;;
23001;SDS011;11667;51.706;4.856;2023-05-07T13:43:07;17.52;;;11.68;;
23001;SDS011;11667;51.706;4.856;2023-05-07T13:45:36;17.15;;;11.55;;
23001;SDS011;11667;51.706;4.856;2023-05-07T13:48:06;20.68;;;11.97;;
23001;SDS011;11667;51.706;4.856;2023-05-07T13:50:35;16.05;;;11.40;;
23001;SDS011;11667;51.706;4.856;2023-05-07T13:53:05;17.80;;;11.65;;
23001;SDS011;11667;51.706;4.856;2023-05-07T13:55:36;17.92;;;11.50;;
23001;SDS011;11667;51.706;4.856;2023-05-07T13:58:05;18.25;;;10.98;;
23001;SDS011;11667;51.706;4.856;2023-05-07T14:00:35;15.53;;;11.03;;
23001;SDS011;11667;51.706;4.856;2023-05-07T14:03:04;15.83;;;11.48;;
23001;SDS011;11667;51.706;4.856;2023-05-07T14:05:34;13.80;;;9.58;;
23001;SDS011;11667;51.706;4.856;2023-05-07T14:08:04;14.10;;;9.85;;
23001;SDS011;11667;51.706;4.856;2023-05-07T14:10:35;15.20;;;8.63;;
23001;SDS011;11667;51.706;4.856;2023-05-07T14:13:05;12.45;;;7.83;;
23001;SDS011;11667;51.706;4.856;2023-05-07T14:15:34;12.68;;;7.72;;
23001;SDS011;11667;51.706;4.856;2023-05-07T14:18:04;8.95;;;6.72;;
23001;SDS011;11667;51.706;4.856;2023-05-07T14:20:34;9.23;;;6.78;;
23001;SDS011;11667;51.706;4.856;2023-05-07T14:23:05;11.43;;;6.30;;
23001;SDS011;11667;51.706;4.856;2023-05-07T14:25:35;7.92;;;6.08;;
23001;SDS011;11667;51.706;4.856;2023-05-07T14:28:04;8.90;;;6.30;;
23001;SDS011;11667;51.706;4.856;2023-05-07T14:30:35;8.35;;;6.00;;
23001;SDS011;11667;51.706;4.856;2023-05-07T14:33:05;8.20;;;5.67;;
23001;SDS011;11667;51.706;4.856;2023-05-07T14:35:34;8.45;;;5.50;;
23001;SDS011;11667;51.706;4.856;2023-05-07T14:38:04;7.70;;;5.47;;
23001;SDS011;11667;51.706;4.856;2023-05-07T14:40:33;6.47;;;5.17;;
23001;SDS011;11667;51.706;4.856;2023-05-07T14:43:02;6.62;;;4.67;;
23001;SDS011;11667;51.706;4.856;2023-05-07T14:45:32;7.58;;;5.20;;
23001;SDS011;11667;51.706;4.856;2023-05-07T14:48:02;7.85;;;4.78;;
23001;SDS011;11667;51.706;4.856;2023-05-07T14:50:32;12.85;;;5.50;;
23001;SDS011;11667;51.706;4.856;2023-05-07T14:53:01;9.83;;;6.10;;
23001;SDS011;11667;51.706;4.856;2023-05-07T14:55:31;9.43;;;6.42;;
23001;SDS011;11667;51.706;4.856;2023-05-07T14:58:02;8.95;;;6.17;;
23001;SDS011;11667;51.706;4.856;2023-05-07T15:00:31;11.22;;;6.60;;